sensor_id;sensor_type;location;lat;lon;timestamp;P1;durP1;ratioP1;P2;durP2;ratioP2
59302;SDS011;45074;52.764;6.896;2022-10-28T00:01:40;14.95;;;8.57;;
59302;SDS011;45074;52.764;6.896;2022-10-28T00:04:06;14.70;;;9.20;;
59302;SDS011;45074;52.764;6.896;2022-10-28T00:06:34;13.93;;;8.35;;
59302;SDS011;45074;52.764;6.896;2022-10-28T00:09:00;16.05;;;8.60;;
59302;SDS011;45074;52.764;6.896;2022-10-28T00:11:27;13.98;;;8.50;;
59302;SDS011;45074;52.764;6.896;2022-10-28T00:13:56;18.52;;;9.15;;
59302;SDS011;45074;52.764;6.896;2022-10-28T00:16:27;16.75;;;8.10;;
59302;SDS011;45074;52.764;6.896;2022-10-28T00:18:54;14.02;;;8.70;;
59302;SDS011;45074;52.764;6.896;2022-10-28T00:21:23;16.15;;;8.23;;
59302;SDS011;45074;52.764;6.896;2022-10-28T00:23:53;12.88;;;8.57;;
59302;SDS011;45074;52.764;6.896;2022-10-28T00:26:20;15.45;;;8.70;;
59302;SDS011;45074;52.764;6.896;2022-10-28T00:28:50;16.02;;;8.45;;
59302;SDS011;45074;52.764;6.896;2022-10-28T00:31:17;13.43;;;8.75;;
59302;SDS011;45074;52.764;6.896;2022-10-28T00:33:44;15.48;;;9.00;;
59302;SDS011;45074;52.764;6.896;2022-10-28T00:38:37;16.52;;;8.93;;
59302;SDS011;45074;52.764;6.896;2022-10-28T00:41:04;16.85;;;9.20;;
59302;SDS011;45074;52.764;6.896;2022-10-28T00:43:50;13.70;;;9.07;;
59302;SDS011;45074;52.764;6.896;2022-10-28T00:46:19;14.48;;;9.40;;
59302;SDS011;45074;52.764;6.896;2022-10-28T00:48:51;15.52;;;8.93;;
59302;SDS011;45074;52.764;6.896;2022-10-28T00:51:20;14.73;;;8.85;;
59302;SDS011;45074;52.764;6.896;2022-10-28T00:53:48;17.60;;;9.75;;
59302;SDS011;45074;52.764;6.896;2022-10-28T00:56:16;16.92;;;9.75;;
59302;SDS011;45074;52.764;6.896;2022-10-28T00:58:42;14.02;;;9.43;;
59302;SDS011;45074;52.764;6.896;2022-10-28T01:01:11;16.23;;;10.18;;
59302;SDS011;45074;52.764;6.896;2022-10-28T01:03:37;16.60;;;9.63;;
59302;SDS011;45074;52.764;6.896;2022-10-28T01:06:03;14.25;;;9.93;;
59302;SDS011;45074;52.764;6.896;2022-10-28T01:08:29;15.27;;;9.25;;
59302;SDS011;45074;52.764;6.896;2022-10-28T01:11:03;18.08;;;10.13;;
59302;SDS011;45074;52.764;6.896;2022-10-28T01:16:40;17.05;;;10.15;;
59302;SDS011;45074;52.764;6.896;2022-10-28T01:22:35;18.77;;;10.23;;
59302;SDS011;45074;52.764;6.896;2022-10-28T01:28:08;17.80;;;9.50;;
59302;SDS011;45074;52.764;6.896;2022-10-28T01:33:56;17.02;;;10.10;;
59302;SDS011;45074;52.764;6.896;2022-10-28T01:39:33;15.60;;;10.07;;
59302;SDS011;45074;52.764;6.896;2022-10-28T01:42:28;16.73;;;10.30;;
59302;SDS011;45074;52.764;6.896;2022-10-28T01:50:56;16.42;;;10.30;;
59302;SDS011;45074;52.764;6.896;2022-10-28T01:53:29;18.83;;;10.73;;
59302;SDS011;45074;52.764;6.896;2022-10-28T01:55:58;17.42;;;10.45;;
59302;SDS011;45074;52.764;6.896;2022-10-28T01:58:29;14.68;;;9.82;;
59302;SDS011;45074;52.764;6.896;2022-10-28T02:00:57;16.45;;;10.70;;
59302;SDS011;45074;52.764;6.896;2022-10-28T02:03:25;18.38;;;10.95;;
59302;SDS011;45074;52.764;6.896;2022-10-28T02:05:51;18.92;;;11.32;;
59302;SDS011;45074;52.764;6.896;2022-10-28T02:11:00;18.67;;;10.45;;
59302;SDS011;45074;52.764;6.896;2022-10-28T02:13:42;17.15;;;10.77;;
59302;SDS011;45074;52.764;6.896;2022-10-28T02:16:28;19.95;;;10.80;;
59302;SDS011;45074;52.764;6.896;2022-10-28T02:21:29;19.83;;;10.63;;
59302;SDS011;45074;52.764;6.896;2022-10-28T02:24:20;20.27;;;11.50;;
59302;SDS011;45074;52.764;6.896;2022-10-28T02:26:55;19.17;;;11.10;;
59302;SDS011;45074;52.764;6.896;2022-10-28T02:32:45;18.90;;;11.13;;
59302;SDS011;45074;52.764;6.896;2022-10-28T02:35:22;18.80;;;10.90;;
59302;SDS011;45074;52.764;6.896;2022-10-28T02:38:12;19.42;;;10.98;;
59302;SDS011;45074;52.764;6.896;2022-10-28T02:40:41;20.45;;;11.05;;
59302;SDS011;45074;52.764;6.896;2022-10-28T02:43:13;15.95;;;10.80;;
59302;SDS011;45074;52.764;6.896;2022-10-28T02:45:44;17.00;;;10.77;;
59302;SDS011;45074;52.764;6.896;2022-10-28T02:48:46;16.73;;;10.85;;
59302;SDS011;45074;52.764;6.896;2022-10-28T02:51:11;17.83;;;10.70;;
59302;SDS011;45074;52.764;6.896;2022-10-28T02:53:46;16.45;;;10.52;;
59302;SDS011;45074;52.764;6.896;2022-10-28T02:56:20;15.27;;;10.38;;
59302;SDS011;45074;52.764;6.896;2022-10-28T02:58:46;18.88;;;10.50;;
59302;SDS011;45074;52.764;6.896;2022-10-28T03:01:13;20.08;;;10.43;;
59302;SDS011;45074;52.764;6.896;2022-10-28T03:03:39;16.98;;;10.13;;
59302;SDS011;45074;52.764;6.896;2022-10-28T03:06:05;16.52;;;10.38;;
59302;SDS011;45074;52.764;6.896;2022-10-28T03:08:31;17.70;;;10.52;;
59302;SDS011;45074;52.764;6.896;2022-10-28T03:10:57;17.08;;;10.00;;
59302;SDS011;45074;52.764;6.896;2022-10-28T03:13:23;18.35;;;10.15;;
59302;SDS011;45074;52.764;6.896;2022-10-28T03:15:49;15.27;;;9.70;;
59302;SDS011;45074;52.764;6.896;2022-10-28T03:18:15;15.35;;;10.10;;
59302;SDS011;45074;52.764;6.896;2022-10-28T03:20:41;16.13;;;9.90;;
59302;SDS011;45074;52.764;6.896;2022-10-28T03:23:07;13.88;;;9.95;;
59302;SDS011;45074;52.764;6.896;2022-10-28T03:25:33;19.50;;;9.95;;
59302;SDS011;45074;52.764;6.896;2022-10-28T03:27:59;16.85;;;9.80;;
59302;SDS011;45074;52.764;6.896;2022-10-28T03:30:25;17.85;;;10.48;;
59302;SDS011;45074;52.764;6.896;2022-10-28T03:32:51;15.70;;;10.10;;
59302;SDS011;45074;52.764;6.896;2022-10-28T03:35:17;16.20;;;10.43;;
59302;SDS011;45074;52.764;6.896;2022-10-28T03:37:43;14.50;;;10.10;;
59302;SDS011;45074;52.764;6.896;2022-10-28T03:40:09;16.48;;;9.85;;
59302;SDS011;45074;52.764;6.896;2022-10-28T03:42:36;14.98;;;9.55;;
59302;SDS011;45074;52.764;6.896;2022-10-28T03:45:02;15.15;;;9.80;;
59302;SDS011;45074;52.764;6.896;2022-10-28T03:47:28;17.20;;;10.23;;
59302;SDS011;45074;52.764;6.896;2022-10-28T03:49:54;18.77;;;10.35;;
59302;SDS011;45074;52.764;6.896;2022-10-28T03:52:20;16.42;;;9.90;;
59302;SDS011;45074;52.764;6.896;2022-10-28T03:54:46;17.50;;;10.73;;
59302;SDS011;45074;52.764;6.896;2022-10-28T03:57:12;17.05;;;9.77;;
59302;SDS011;45074;52.764;6.896;2022-10-28T03:59:38;12.68;;;9.13;;
59302;SDS011;45074;52.764;6.896;2022-10-28T04:02:04;16.48;;;10.02;;
59302;SDS011;45074;52.764;6.896;2022-10-28T04:04:30;19.10;;;10.50;;
59302;SDS011;45074;52.764;6.896;2022-10-28T04:06:56;18.13;;;10.35;;
59302;SDS011;45074;52.764;6.896;2022-10-28T04:09:22;18.80;;;9.88;;
59302;SDS011;45074;52.764;6.896;2022-10-28T04:11:48;17.80;;;9.73;;
59302;SDS011;45074;52.764;6.896;2022-10-28T04:14:14;17.55;;;10.70;;
59302;SDS011;45074;52.764;6.896;2022-10-28T04:16:40;18.63;;;9.93;;
59302;SDS011;45074;52.764;6.896;2022-10-28T04:19:06;19.70;;;10.25;;
59302;SDS011;45074;52.764;6.896;2022-10-28T04:21:32;18.08;;;10.43;;
59302;SDS011;45074;52.764;6.896;2022-10-28T04:23:58;15.55;;;9.70;;
59302;SDS011;45074;52.764;6.896;2022-10-28T04:26:24;20.35;;;10.27;;
59302;SDS011;45074;52.764;6.896;2022-10-28T04:28:50;18.45;;;10.93;;
59302;SDS011;45074;52.764;6.896;2022-10-28T04:31:16;18.65;;;10.73;;
59302;SDS011;45074;52.764;6.896;2022-10-28T04:33:42;21.10;;;10.60;;
59302;SDS011;45074;52.764;6.896;2022-10-28T04:36:08;19.00;;;11.13;;
59302;SDS011;45074;52.764;6.896;2022-10-28T04:38:34;15.75;;;10.82;;
59302;SDS011;45074;52.764;6.896;2022-10-28T04:41:00;19.50;;;10.77;;
59302;SDS011;45074;52.764;6.896;2022-10-28T04:43:26;19.70;;;11.18;;
59302;SDS011;45074;52.764;6.896;2022-10-28T04:45:53;15.27;;;10.45;;
59302;SDS011;45074;52.764;6.896;2022-10-28T04:48:19;20.33;;;11.38;;
59302;SDS011;45074;52.764;6.896;2022-10-28T04:50:45;21.58;;;11.52;;
59302;SDS011;45074;52.764;6.896;2022-10-28T04:53:11;19.08;;;11.10;;
59302;SDS011;45074;52.764;6.896;2022-10-28T04:55:37;17.77;;;11.02;;
59302;SDS011;45074;52.764;6.896;2022-10-28T04:58:03;18.63;;;10.63;;
59302;SDS011;45074;52.764;6.896;2022-10-28T05:00:29;18.98;;;11.23;;
59302;SDS011;45074;52.764;6.896;2022-10-28T05:02:55;18.17;;;11.40;;
59302;SDS011;45074;52.764;6.896;2022-10-28T05:05:22;19.77;;;10.73;;
59302;SDS011;45074;52.764;6.896;2022-10-28T05:07:47;18.60;;;10.65;;
59302;SDS011;45074;52.764;6.896;2022-10-28T05:10:13;17.23;;;11.10;;
59302;SDS011;45074;52.764;6.896;2022-10-28T05:12:41;17.02;;;10.20;;
59302;SDS011;45074;52.764;6.896;2022-10-28T05:15:08;16.42;;;10.30;;
59302;SDS011;45074;52.764;6.896;2022-10-28T05:17:36;17.75;;;10.43;;
59302;SDS011;45074;52.764;6.896;2022-10-28T05:20:03;16.23;;;10.35;;
59302;SDS011;45074;52.764;6.896;2022-10-28T05:22:29;21.80;;;10.60;;
59302;SDS011;45074;52.764;6.896;2022-10-28T05:24:55;17.98;;;10.38;;
59302;SDS011;45074;52.764;6.896;2022-10-28T05:27:21;20.33;;;10.40;;
59302;SDS011;45074;52.764;6.896;2022-10-28T05:29:47;18.60;;;10.95;;
59302;SDS011;45074;52.764;6.896;2022-10-28T05:32:13;17.90;;;11.00;;
59302;SDS011;45074;52.764;6.896;2022-10-28T05:34:39;18.35;;;10.68;;
59302;SDS011;45074;52.764;6.896;2022-10-28T05:37:05;17.30;;;10.27;;
59302;SDS011;45074;52.764;6.896;2022-10-28T05:39:31;18.77;;;11.48;;
59302;SDS011;45074;52.764;6.896;2022-10-28T05:41:57;15.38;;;9.88;;
59302;SDS011;45074;52.764;6.896;2022-10-28T05:44:23;17.75;;;10.15;;
59302;SDS011;45074;52.764;6.896;2022-10-28T05:46:49;17.65;;;9.73;;
59302;SDS011;45074;52.764;6.896;2022-10-28T05:49:15;17.63;;;10.65;;
59302;SDS011;45074;52.764;6.896;2022-10-28T05:51:44;20.02;;;9.95;;
59302;SDS011;45074;52.764;6.896;2022-10-28T05:54:10;18.20;;;10.00;;
59302;SDS011;45074;52.764;6.896;2022-10-28T05:56:36;17.58;;;10.40;;
59302;SDS011;45074;52.764;6.896;2022-10-28T05:59:02;18.95;;;10.25;;
59302;SDS011;45074;52.764;6.896;2022-10-28T06:01:28;18.92;;;10.07;;
59302;SDS011;45074;52.764;6.896;2022-10-28T06:03:54;19.98;;;11.32;;
59302;SDS011;45074;52.764;6.896;2022-10-28T06:06:20;18.65;;;11.43;;
59302;SDS011;45074;52.764;6.896;2022-10-28T06:08:46;16.42;;;10.95;;
59302;SDS011;45074;52.764;6.896;2022-10-28T06:11:12;20.25;;;11.05;;
59302;SDS011;45074;52.764;6.896;2022-10-28T06:13:39;15.98;;;11.27;;
59302;SDS011;45074;52.764;6.896;2022-10-28T06:16:05;19.38;;;12.02;;
59302;SDS011;45074;52.764;6.896;2022-10-28T06:18:31;19.38;;;10.90;;
59302;SDS011;45074;52.764;6.896;2022-10-28T06:20:58;19.85;;;11.10;;
59302;SDS011;45074;52.764;6.896;2022-10-28T06:23:24;20.08;;;11.10;;
59302;SDS011;45074;52.764;6.896;2022-10-28T06:25:55;17.42;;;10.77;;
59302;SDS011;45074;52.764;6.896;2022-10-28T06:28:24;17.60;;;11.27;;
59302;SDS011;45074;52.764;6.896;2022-10-28T06:30:51;17.23;;;10.95;;
59302;SDS011;45074;52.764;6.896;2022-10-28T06:33:17;13.75;;;10.57;;
59302;SDS011;45074;52.764;6.896;2022-10-28T06:35:43;17.48;;;11.18;;
59302;SDS011;45074;52.764;6.896;2022-10-28T06:38:09;21.02;;;11.00;;
59302;SDS011;45074;52.764;6.896;2022-10-28T06:40:35;19.38;;;11.02;;
59302;SDS011;45074;52.764;6.896;2022-10-28T06:43:02;19.92;;;10.75;;
59302;SDS011;45074;52.764;6.896;2022-10-28T06:45:30;15.98;;;10.82;;
59302;SDS011;45074;52.764;6.896;2022-10-28T06:47:58;17.98;;;10.48;;
59302;SDS011;45074;52.764;6.896;2022-10-28T06:50:26;17.83;;;10.10;;
59302;SDS011;45074;52.764;6.896;2022-10-28T06:52:54;18.27;;;10.60;;
59302;SDS011;45074;52.764;6.896;2022-10-28T06:55:21;17.98;;;10.10;;
59302;SDS011;45074;52.764;6.896;2022-10-28T06:57:47;15.27;;;9.82;;
59302;SDS011;45074;52.764;6.896;2022-10-28T07:00:13;19.52;;;10.20;;
59302;SDS011;45074;52.764;6.896;2022-10-28T07:02:40;16.45;;;9.63;;
59302;SDS011;45074;52.764;6.896;2022-10-28T07:05:06;19.75;;;10.35;;
59302;SDS011;45074;52.764;6.896;2022-10-28T07:07:32;17.55;;;10.65;;
59302;SDS011;45074;52.764;6.896;2022-10-28T07:10:01;21.15;;;9.93;;
59302;SDS011;45074;52.764;6.896;2022-10-28T07:12:27;19.58;;;9.70;;
59302;SDS011;45074;52.764;6.896;2022-10-28T07:14:53;17.65;;;9.88;;
59302;SDS011;45074;52.764;6.896;2022-10-28T07:17:19;22.20;;;10.00;;
59302;SDS011;45074;52.764;6.896;2022-10-28T07:19:45;16.67;;;9.75;;
59302;SDS011;45074;52.764;6.896;2022-10-28T07:22:11;19.63;;;9.57;;
59302;SDS011;45074;52.764;6.896;2022-10-28T07:24:37;18.42;;;10.00;;
59302;SDS011;45074;52.764;6.896;2022-10-28T07:27:03;19.45;;;9.52;;
59302;SDS011;45074;52.764;6.896;2022-10-28T07:29:29;18.05;;;9.60;;
59302;SDS011;45074;52.764;6.896;2022-10-28T07:31:55;17.58;;;9.25;;
59302;SDS011;45074;52.764;6.896;2022-10-28T07:34:21;18.90;;;9.65;;
59302;SDS011;45074;52.764;6.896;2022-10-28T07:36:51;21.42;;;9.25;;
59302;SDS011;45074;52.764;6.896;2022-10-28T07:39:17;17.48;;;9.05;;
59302;SDS011;45074;52.764;6.896;2022-10-28T07:41:44;16.27;;;8.60;;
59302;SDS011;45074;52.764;6.896;2022-10-28T07:44:10;16.75;;;8.70;;
59302;SDS011;45074;52.764;6.896;2022-10-28T07:46:36;15.48;;;8.40;;
59302;SDS011;45074;52.764;6.896;2022-10-28T07:49:02;18.02;;;8.43;;
59302;SDS011;45074;52.764;6.896;2022-10-28T07:51:28;18.23;;;8.50;;
59302;SDS011;45074;52.764;6.896;2022-10-28T07:53:58;17.10;;;9.25;;
59302;SDS011;45074;52.764;6.896;2022-10-28T07:56:24;18.70;;;8.23;;
59302;SDS011;45074;52.764;6.896;2022-10-28T07:58:50;14.95;;;8.70;;
59302;SDS011;45074;52.764;6.896;2022-10-28T08:01:17;15.55;;;8.35;;
59302;SDS011;45074;52.764;6.896;2022-10-28T08:03:44;15.00;;;7.95;;
59302;SDS011;45074;52.764;6.896;2022-10-28T08:06:14;16.95;;;8.27;;
59302;SDS011;45074;52.764;6.896;2022-10-28T08:08:41;19.52;;;9.13;;
59302;SDS011;45074;52.764;6.896;2022-10-28T08:11:15;19.45;;;8.80;;
59302;SDS011;45074;52.764;6.896;2022-10-28T08:13:48;15.30;;;7.90;;
59302;SDS011;45074;52.764;6.896;2022-10-28T08:16:15;14.93;;;7.60;;
59302;SDS011;45074;52.764;6.896;2022-10-28T08:18:42;15.75;;;8.18;;
59302;SDS011;45074;52.764;6.896;2022-10-28T08:21:10;13.30;;;7.28;;
59302;SDS011;45074;52.764;6.896;2022-10-28T08:23:36;17.55;;;7.60;;
59302;SDS011;45074;52.764;6.896;2022-10-28T08:26:02;15.27;;;7.50;;
59302;SDS011;45074;52.764;6.896;2022-10-28T08:28:28;17.63;;;7.50;;
59302;SDS011;45074;52.764;6.896;2022-10-28T08:30:58;17.58;;;8.23;;
59302;SDS011;45074;52.764;6.896;2022-10-28T08:33:26;14.45;;;7.30;;
59302;SDS011;45074;52.764;6.896;2022-10-28T08:35:52;16.13;;;7.20;;
59302;SDS011;45074;52.764;6.896;2022-10-28T08:38:18;13.45;;;6.95;;
59302;SDS011;45074;52.764;6.896;2022-10-28T08:43:51;14.27;;;7.30;;
59302;SDS011;45074;52.764;6.896;2022-10-28T08:49:11;14.95;;;6.80;;
59302;SDS011;45074;52.764;6.896;2022-10-28T08:51:53;14.18;;;7.20;;
59302;SDS011;45074;52.764;6.896;2022-10-28T08:56:54;13.52;;;7.10;;
59302;SDS011;45074;52.764;6.896;2022-10-28T08:59:26;14.82;;;7.00;;
59302;SDS011;45074;52.764;6.896;2022-10-28T09:01:58;15.95;;;7.03;;
59302;SDS011;45074;52.764;6.896;2022-10-28T09:06:58;18.75;;;7.28;;
59302;SDS011;45074;52.764;6.896;2022-10-28T09:09:26;15.13;;;7.65;;
59302;SDS011;45074;52.764;6.896;2022-10-28T09:14:55;15.25;;;7.13;;
59302;SDS011;45074;52.764;6.896;2022-10-28T09:23:20;13.52;;;6.75;;
59302;SDS011;45074;52.764;6.896;2022-10-28T09:31:44;17.42;;;6.68;;
59302;SDS011;45074;52.764;6.896;2022-10-28T09:35:14;20.10;;;6.57;;
59302;SDS011;45074;52.764;6.896;2022-10-28T09:37:33;14.98;;;6.20;;
59302;SDS011;45074;52.764;6.896;2022-10-28T09:40:13;15.77;;;6.55;;
59302;SDS011;45074;52.764;6.896;2022-10-28T09:42:48;14.57;;;6.40;;
59302;SDS011;45074;52.764;6.896;2022-10-28T09:45:27;15.60;;;5.80;;
59302;SDS011;45074;52.764;6.896;2022-10-28T09:47:57;15.45;;;6.90;;
59302;SDS011;45074;52.764;6.896;2022-10-28T09:50:27;14.80;;;6.60;;
59302;SDS011;45074;52.764;6.896;2022-10-28T09:52:58;15.20;;;6.68;;
59302;SDS011;45074;52.764;6.896;2022-10-28T09:55:33;12.27;;;6.05;;
59302;SDS011;45074;52.764;6.896;2022-10-28T09:58:01;17.50;;;6.80;;
59302;SDS011;45074;52.764;6.896;2022-10-28T10:00:27;15.65;;;6.38;;
59302;SDS011;45074;52.764;6.896;2022-10-28T10:02:54;17.42;;;6.13;;
59302;SDS011;45074;52.764;6.896;2022-10-28T10:07:57;14.50;;;6.15;;
59302;SDS011;45074;52.764;6.896;2022-10-28T10:10:31;17.30;;;5.93;;
59302;SDS011;45074;52.764;6.896;2022-10-28T10:13:03;14.43;;;5.70;;
59302;SDS011;45074;52.764;6.896;2022-10-28T10:15:30;15.43;;;6.28;;
59302;SDS011;45074;52.764;6.896;2022-10-28T10:18:44;15.40;;;6.45;;
59302;SDS011;45074;52.764;6.896;2022-10-28T10:21:06;13.43;;;6.20;;
59302;SDS011;45074;52.764;6.896;2022-10-28T10:23:33;14.85;;;6.45;;
59302;SDS011;45074;52.764;6.896;2022-10-28T10:26:07;12.70;;;6.10;;
59302;SDS011;45074;52.764;6.896;2022-10-28T10:28:37;14.63;;;6.30;;
59302;SDS011;45074;52.764;6.896;2022-10-28T10:31:08;13.50;;;5.93;;
59302;SDS011;45074;52.764;6.896;2022-10-28T10:33:52;16.75;;;6.90;;
59302;SDS011;45074;52.764;6.896;2022-10-28T10:36:20;15.52;;;6.63;;
59302;SDS011;45074;52.764;6.896;2022-10-28T10:38:53;16.52;;;6.32;;
59302;SDS011;45074;52.764;6.896;2022-10-28T10:41:36;15.38;;;6.03;;
59302;SDS011;45074;52.764;6.896;2022-10-28T10:49:13;14.70;;;5.88;;
59302;SDS011;45074;52.764;6.896;2022-10-28T10:51:53;15.15;;;6.53;;
59302;SDS011;45074;52.764;6.896;2022-10-28T10:54:23;12.43;;;5.63;;
59302;SDS011;45074;52.764;6.896;2022-10-28T10:56:50;15.18;;;5.80;;
59302;SDS011;45074;52.764;6.896;2022-10-28T10:59:20;14.90;;;5.80;;
59302;SDS011;45074;52.764;6.896;2022-10-28T11:01:49;17.40;;;6.15;;
59302;SDS011;45074;52.764;6.896;2022-10-28T11:04:16;15.05;;;6.40;;
59302;SDS011;45074;52.764;6.896;2022-10-28T11:06:43;17.55;;;6.35;;
59302;SDS011;45074;52.764;6.896;2022-10-28T11:09:30;15.43;;;6.28;;
59302;SDS011;45074;52.764;6.896;2022-10-28T11:12:23;15.35;;;5.88;;
59302;SDS011;45074;52.764;6.896;2022-10-28T11:15:03;15.35;;;5.72;;
59302;SDS011;45074;52.764;6.896;2022-10-28T11:17:53;13.63;;;6.35;;
59302;SDS011;45074;52.764;6.896;2022-10-28T11:21:13;17.30;;;5.93;;
59302;SDS011;45074;52.764;6.896;2022-10-28T11:26:14;15.75;;;5.80;;
59302;SDS011;45074;52.764;6.896;2022-10-28T11:29:24;15.85;;;5.55;;
59302;SDS011;45074;52.764;6.896;2022-10-28T11:45:30;15.20;;;6.03;;
59302;SDS011;45074;52.764;6.896;2022-10-28T11:48:35;12.88;;;5.55;;
59302;SDS011;45074;52.764;6.896;2022-10-28T11:54:00;18.75;;;7.00;;
59302;SDS011;45074;52.764;6.896;2022-10-28T11:56:41;16.25;;;6.25;;
59302;SDS011;45074;52.764;6.896;2022-10-28T12:05:16;13.50;;;5.78;;
59302;SDS011;45074;52.764;6.896;2022-10-28T12:16:08;16.20;;;6.15;;
59302;SDS011;45074;52.764;6.896;2022-10-28T12:18:50;12.52;;;5.38;;
59302;SDS011;45074;52.764;6.896;2022-10-28T12:21:36;14.07;;;5.60;;
59302;SDS011;45074;52.764;6.896;2022-10-28T12:24:11;17.10;;;5.35;;
59302;SDS011;45074;52.764;6.896;2022-10-28T12:26:47;13.45;;;4.95;;
59302;SDS011;45074;52.764;6.896;2022-10-28T12:29:18;13.70;;;5.10;;
59302;SDS011;45074;52.764;6.896;2022-10-28T12:31:56;14.13;;;5.35;;
59302;SDS011;45074;52.764;6.896;2022-10-28T12:34:37;14.07;;;5.80;;
59302;SDS011;45074;52.764;6.896;2022-10-28T12:37:08;13.80;;;5.25;;
59302;SDS011;45074;52.764;6.896;2022-10-28T12:40:03;10.30;;;4.93;;
59302;SDS011;45074;52.764;6.896;2022-10-28T12:42:52;14.48;;;5.30;;
59302;SDS011;45074;52.764;6.896;2022-10-28T12:45:23;15.15;;;5.43;;
59302;SDS011;45074;52.764;6.896;2022-10-28T12:47:52;13.80;;;5.00;;
59302;SDS011;45074;52.764;6.896;2022-10-28T12:55:38;14.07;;;5.57;;
59302;SDS011;45074;52.764;6.896;2022-10-28T12:58:13;15.25;;;5.10;;
59302;SDS011;45074;52.764;6.896;2022-10-28T13:00:44;15.93;;;5.60;;
59302;SDS011;45074;52.764;6.896;2022-10-28T13:03:14;15.77;;;5.43;;
59302;SDS011;45074;52.764;6.896;2022-10-28T13:20:47;15.75;;;5.57;;
59302;SDS011;45074;52.764;6.896;2022-10-28T13:28:45;13.05;;;5.72;;
59302;SDS011;45074;52.764;6.896;2022-10-28T13:31:17;13.60;;;5.40;;
59302;SDS011;45074;52.764;6.896;2022-10-28T13:33:54;12.68;;;5.30;;
59302;SDS011;45074;52.764;6.896;2022-10-28T13:36:30;13.40;;;5.22;;
59302;SDS011;45074;52.764;6.896;2022-10-28T13:39:04;14.30;;;5.65;;
59302;SDS011;45074;52.764;6.896;2022-10-28T13:41:38;13.73;;;5.30;;
59302;SDS011;45074;52.764;6.896;2022-10-28T13:49:30;13.45;;;5.07;;
59302;SDS011;45074;52.764;6.896;2022-10-28T13:57:10;15.48;;;5.00;;
59302;SDS011;45074;52.764;6.896;2022-10-28T14:00:07;14.30;;;6.05;;
59302;SDS011;45074;52.764;6.896;2022-10-28T14:02:54;18.73;;;5.88;;
59302;SDS011;45074;52.764;6.896;2022-10-28T14:08:14;11.52;;;5.20;;
59302;SDS011;45074;52.764;6.896;2022-10-28T14:11:06;19.17;;;6.47;;
59302;SDS011;45074;52.764;6.896;2022-10-28T14:13:33;14.27;;;5.78;;
59302;SDS011;45074;52.764;6.896;2022-10-28T14:18:59;15.00;;;5.80;;
59302;SDS011;45074;52.764;6.896;2022-10-28T14:29:29;16.42;;;5.78;;
59302;SDS011;45074;52.764;6.896;2022-10-28T14:31:54;15.57;;;6.03;;
59302;SDS011;45074;52.764;6.896;2022-10-28T14:36:57;14.85;;;5.97;;
59302;SDS011;45074;52.764;6.896;2022-10-28T14:39:39;12.90;;;5.55;;
59302;SDS011;45074;52.764;6.896;2022-10-28T14:44:45;14.73;;;5.82;;
59302;SDS011;45074;52.764;6.896;2022-10-28T14:50:02;17.00;;;5.88;;
59302;SDS011;45074;52.764;6.896;2022-10-28T14:52:49;16.23;;;6.07;;
59302;SDS011;45074;52.764;6.896;2022-10-28T14:55:25;14.65;;;5.80;;
59302;SDS011;45074;52.764;6.896;2022-10-28T14:58:40;16.98;;;5.75;;
59302;SDS011;45074;52.764;6.896;2022-10-28T15:00:42;18.60;;;6.53;;
59302;SDS011;45074;52.764;6.896;2022-10-28T15:03:13;18.58;;;6.07;;
59302;SDS011;45074;52.764;6.896;2022-10-28T15:05:39;18.80;;;6.28;;
59302;SDS011;45074;52.764;6.896;2022-10-28T15:08:05;16.35;;;6.20;;
59302;SDS011;45074;52.764;6.896;2022-10-28T15:10:34;17.30;;;5.90;;
59302;SDS011;45074;52.764;6.896;2022-10-28T15:13:00;17.50;;;5.95;;
59302;SDS011;45074;52.764;6.896;2022-10-28T15:15:28;16.05;;;5.85;;
59302;SDS011;45074;52.764;6.896;2022-10-28T15:17:56;13.95;;;5.85;;
59302;SDS011;45074;52.764;6.896;2022-10-28T15:20:27;16.58;;;6.75;;
59302;SDS011;45074;52.764;6.896;2022-10-28T15:25:43;11.93;;;5.97;;
59302;SDS011;45074;52.764;6.896;2022-10-28T15:28:10;18.85;;;6.38;;
59302;SDS011;45074;52.764;6.896;2022-10-28T15:30:37;15.98;;;6.03;;
59302;SDS011;45074;52.764;6.896;2022-10-28T15:33:20;12.45;;;5.53;;
59302;SDS011;45074;52.764;6.896;2022-10-28T15:35:52;16.05;;;5.95;;
59302;SDS011;45074;52.764;6.896;2022-10-28T15:38:23;15.07;;;5.70;;
59302;SDS011;45074;52.764;6.896;2022-10-28T15:40:52;15.27;;;6.60;;
59302;SDS011;45074;52.764;6.896;2022-10-28T15:43:22;14.25;;;5.65;;
59302;SDS011;45074;52.764;6.896;2022-10-28T15:45:50;13.57;;;6.22;;
59302;SDS011;45074;52.764;6.896;2022-10-28T15:48:19;13.95;;;6.50;;
59302;SDS011;45074;52.764;6.896;2022-10-28T15:51:09;16.10;;;6.10;;
59302;SDS011;45074;52.764;6.896;2022-10-28T15:53:41;15.52;;;6.43;;
59302;SDS011;45074;52.764;6.896;2022-10-28T15:56:24;15.07;;;5.88;;
59302;SDS011;45074;52.764;6.896;2022-10-28T15:59:02;15.80;;;6.25;;
59302;SDS011;45074;52.764;6.896;2022-10-28T16:01:56;17.63;;;6.05;;
59302;SDS011;45074;52.764;6.896;2022-10-28T16:06:56;15.13;;;6.28;;
59302;SDS011;45074;52.764;6.896;2022-10-28T16:09:30;16.48;;;6.25;;
59302;SDS011;45074;52.764;6.896;2022-10-28T16:12:02;15.35;;;6.32;;
59302;SDS011;45074;52.764;6.896;2022-10-28T16:17:16;16.77;;;6.32;;
59302;SDS011;45074;52.764;6.896;2022-10-28T16:20:03;16.17;;;6.88;;
59302;SDS011;45074;52.764;6.896;2022-10-28T16:22:37;17.35;;;6.35;;
59302;SDS011;45074;52.764;6.896;2022-10-28T16:25:07;14.43;;;6.40;;
59302;SDS011;45074;52.764;6.896;2022-10-28T16:27:37;14.60;;;6.28;;
59302;SDS011;45074;52.764;6.896;2022-10-28T16:30:04;16.35;;;6.57;;
59302;SDS011;45074;52.764;6.896;2022-10-28T16:32:40;13.18;;;5.78;;
59302;SDS011;45074;52.764;6.896;2022-10-28T16:35:14;17.58;;;8.10;;
59302;SDS011;45074;52.764;6.896;2022-10-28T16:37:42;17.08;;;7.28;;
59302;SDS011;45074;52.764;6.896;2022-10-28T16:40:08;17.25;;;7.00;;
59302;SDS011;45074;52.764;6.896;2022-10-28T16:42:35;14.85;;;6.68;;
59302;SDS011;45074;52.764;6.896;2022-10-28T16:45:02;20.27;;;7.18;;
59302;SDS011;45074;52.764;6.896;2022-10-28T16:47:28;14.23;;;7.00;;
59302;SDS011;45074;52.764;6.896;2022-10-28T16:49:54;18.15;;;7.10;;
59302;SDS011;45074;52.764;6.896;2022-10-28T16:52:21;16.27;;;7.03;;
59302;SDS011;45074;52.764;6.896;2022-10-28T16:54:49;16.65;;;7.28;;
59302;SDS011;45074;52.764;6.896;2022-10-28T16:57:16;20.38;;;7.57;;
59302;SDS011;45074;52.764;6.896;2022-10-28T16:59:43;16.75;;;7.25;;
59302;SDS011;45074;52.764;6.896;2022-10-28T17:02:51;16.70;;;7.10;;
59302;SDS011;45074;52.764;6.896;2022-10-28T17:04:59;15.03;;;7.27;;
59302;SDS011;45074;52.764;6.896;2022-10-28T17:07:26;16.10;;;7.22;;
59302;SDS011;45074;52.764;6.896;2022-10-28T17:09:53;23.83;;;7.90;;
59302;SDS011;45074;52.764;6.896;2022-10-28T17:12:23;12.63;;;6.82;;
59302;SDS011;45074;52.764;6.896;2022-10-28T17:14:50;16.50;;;7.05;;
59302;SDS011;45074;52.764;6.896;2022-10-28T17:17:16;18.55;;;7.50;;
59302;SDS011;45074;52.764;6.896;2022-10-28T17:19:42;17.15;;;6.78;;
59302;SDS011;45074;52.764;6.896;2022-10-28T17:22:09;16.63;;;6.85;;
59302;SDS011;45074;52.764;6.896;2022-10-28T17:24:36;16.80;;;6.75;;
59302;SDS011;45074;52.764;6.896;2022-10-28T17:27:03;15.13;;;7.10;;
59302;SDS011;45074;52.764;6.896;2022-10-28T17:29:29;17.00;;;7.40;;
59302;SDS011;45074;52.764;6.896;2022-10-28T17:31:55;15.15;;;7.43;;
59302;SDS011;45074;52.764;6.896;2022-10-28T17:34:21;17.80;;;7.47;;
59302;SDS011;45074;52.764;6.896;2022-10-28T17:36:47;14.45;;;6.80;;